createdAt,value
2018-07-27T00:00:25.585Z,100404.00
2018-07-27T00:01:31.676Z,100407.30
2018-07-27T00:02:38.401Z,100402.62
2018-07-27T00:03:45.052Z,100402.03
2018-07-27T00:04:52.538Z,100399.99
2018-07-27T00:05:58.258Z,100407.52
2018-07-27T00:07:04.496Z,100401.47
2018-07-27T00:08:10.516Z,100401.38
2018-07-27T00:09:16.833Z,100406.68
2018-07-27T00:10:22.949Z,100404.44
2018-07-27T00:11:29.280Z,100403.19
2018-07-27T00:12:35.557Z,100398.09
2018-07-27T00:13:41.907Z,100399.08
2018-07-27T00:14:48.212Z,100408.21
2018-07-27T00:15:54.960Z,100401.48
2018-07-27T00:17:01.713Z,100397.61
2018-07-27T00:18:07.748Z,100395.77
2018-07-27T00:19:14.046Z,100397.55
2018-07-27T00:20:20.041Z,100393.33
2018-07-27T00:21:26.441Z,100396.34
2018-07-27T00:22:32.679Z,100398.91
2018-07-27T00:23:38.999Z,100397.20
2018-07-27T00:24:45.112Z,100397.13
2018-07-27T00:25:51.415Z,100396.44
2018-07-27T00:26:57.779Z,100398.47
2018-07-27T00:28:04.064Z,100395.61
2018-07-27T00:29:10.335Z,100400.45
2018-07-27T00:30:16.307Z,100403.33
2018-07-27T00:31:22.388Z,100397.01
2018-07-27T00:32:29.720Z,100398.37
2018-07-27T00:33:41.242Z,100394.08
2018-07-27T00:34:47.541Z,100394.98
2018-07-27T00:35:54.154Z,100400.70
2018-07-27T00:37:00.500Z,100397.11
2018-07-27T00:38:06.785Z,100399.37
2018-07-27T00:39:12.779Z,100401.12
2018-07-27T00:40:19.099Z,100398.66
2018-07-27T00:41:25.222Z,100397.45
2018-07-27T00:42:31.555Z,100396.23
2018-07-27T00:43:37.657Z,100398.86
2018-07-27T00:44:44.033Z,100401.55
2018-07-27T00:45:50.370Z,100397.20
2018-07-27T00:46:56.648Z,100399.17
2018-07-27T00:48:02.582Z,100393.63
2018-07-27T00:49:08.978Z,100396.08
2018-07-27T00:50:15.403Z,100390.20
2018-07-27T00:51:21.357Z,100389.24
2018-07-27T00:52:27.388Z,100389.67
2018-07-27T00:53:33.749Z,100386.70
2018-07-27T00:54:39.784Z,100388.83
2018-07-27T00:55:46.108Z,100389.81
2018-07-27T00:56:52.376Z,100387.77
2018-07-27T00:57:58.646Z,100386.63
2018-07-27T00:59:04.780Z,100391.06
2018-07-27T01:00:11.302Z,100382.75
2018-07-27T01:01:17.331Z,100385.97
2018-07-27T01:02:23.420Z,100381.91
2018-07-27T01:03:29.695Z,100384.34
2018-07-27T01:04:35.583Z,100377.45
2018-07-27T01:05:42.017Z,100384.41
2018-07-27T01:06:48.080Z,100382.75
2018-07-27T01:07:55.227Z,100382.87
2018-07-27T01:09:01.727Z,100381.39
2018-07-27T01:10:07.104Z,100384.41
2018-07-27T01:11:13.072Z,100384.64
2018-07-27T01:12:19.531Z,100377.25
2018-07-27T01:13:25.512Z,100378.07
2018-07-27T01:14:31.520Z,100379.83
2018-07-27T01:15:37.833Z,100374.00
2018-07-27T01:16:44.143Z,100372.58
2018-07-27T01:17:50.226Z,100378.07
2018-07-27T01:18:56.544Z,100376.83
2018-07-27T01:20:02.776Z,100374.58
2018-07-27T01:21:09.337Z,100373.30
2018-07-27T01:22:15.712Z,100369.41
2018-07-27T01:23:22.453Z,100372.70
2018-07-27T01:24:29.434Z,100366.28
2018-07-27T01:25:35.828Z,100366.72
2018-07-27T01:26:41.593Z,100370.00
2018-07-27T01:27:47.900Z,100365.27
2018-07-27T01:28:54.203Z,100367.81
2018-07-27T01:29:59.916Z,100368.15
2018-07-27T01:31:05.224Z,100370.88
2018-07-27T01:32:11.601Z,100374.02
2018-07-27T01:33:17.911Z,100375.80
2018-07-27T01:34:24.185Z,100372.70
2018-07-27T01:35:30.544Z,100375.99
2018-07-27T01:36:36.489Z,100373.58
2018-07-27T01:37:42.851Z,100375.06
2018-07-27T01:38:49.133Z,100369.66
2018-07-27T01:39:55.075Z,100368.23
2018-07-27T01:41:00.992Z,100365.06
2018-07-27T01:42:07.064Z,100363.88
2018-07-27T01:43:13.468Z,100360.18
2018-07-27T01:44:19.799Z,100369.64
2018-07-27T01:45:26.123Z,100359.84
2018-07-27T01:46:32.430Z,100362.42
2018-07-27T01:47:38.853Z,100362.64
2018-07-27T01:48:45.131Z,100362.98
2018-07-27T01:49:51.443Z,100364.43
2018-07-27T01:50:57.754Z,100362.77
2018-07-27T01:52:04.092Z,100362.30
2018-07-27T01:53:10.004Z,100372.91
2018-07-27T01:54:16.281Z,100361.03
2018-07-27T01:55:22.394Z,100365.06
2018-07-27T01:56:28.752Z,100358.87
2018-07-27T01:57:35.030Z,100364.86
2018-07-27T01:58:41.468Z,100359.76
2018-07-27T01:59:48.455Z,100366.91
2018-07-27T02:00:55.052Z,100361.29
2018-07-27T02:02:01.518Z,100361.13
2018-07-27T02:03:07.824Z,100367.13
2018-07-27T02:04:14.130Z,100364.74
2018-07-27T02:05:20.421Z,100363.73
2018-07-27T02:06:26.744Z,100362.67
2018-07-27T02:07:33.107Z,100364.48
2018-07-27T02:08:39.328Z,100365.48
2018-07-27T02:09:45.507Z,100367.42
2018-07-27T02:10:51.575Z,100368.97
2018-07-27T02:11:57.984Z,100369.01
2018-07-27T02:13:04.516Z,100370.77
2018-07-27T02:14:10.925Z,100367.16
2018-07-27T02:15:17.895Z,100367.63
2018-07-27T02:16:24.952Z,100366.24
2018-07-27T02:17:31.312Z,100356.59
2018-07-27T02:18:37.612Z,100365.06
2018-07-27T02:19:43.907Z,100364.62
2018-07-27T02:20:50.232Z,100360.20
2018-07-27T02:21:56.665Z,100357.34
2018-07-27T02:23:05.329Z,100358.13
2018-07-27T02:24:11.635Z,100360.95
2018-07-27T02:25:17.949Z,100356.59
2018-07-27T02:26:24.240Z,100359.72
2018-07-27T02:27:30.680Z,100360.10
2018-07-27T02:28:36.761Z,100353.97
2018-07-27T02:29:43.081Z,100357.66
2018-07-27T02:30:49.518Z,100363.05
2018-07-27T02:31:55.568Z,100349.13
2018-07-27T02:33:01.848Z,100349.94
2018-07-27T02:34:08.733Z,100354.90
2018-07-27T02:35:15.074Z,100351.65
2018-07-27T02:36:21.382Z,100356.13
2018-07-27T02:37:27.684Z,100356.60
2018-07-27T02:38:33.998Z,100361.57
2018-07-27T02:39:40.412Z,100352.66
2018-07-27T02:40:46.544Z,100356.55
2018-07-27T02:41:52.830Z,100355.48
2018-07-27T02:42:59.156Z,100354.91
2018-07-27T02:44:05.075Z,100357.62
2018-07-27T02:45:11.100Z,100360.13
2018-07-27T02:46:17.404Z,100356.86
2018-07-27T02:47:23.812Z,100352.84
2018-07-27T02:48:30.066Z,100354.23
2018-07-27T02:49:36.384Z,100357.80
2018-07-27T02:50:42.689Z,100355.27
2018-07-27T02:51:49.821Z,100353.45
2018-07-27T02:52:56.048Z,100357.67
2018-07-27T02:54:01.982Z,100359.52
2018-07-27T02:55:08.391Z,100358.69
2018-07-27T02:56:14.338Z,100360.33
2018-07-27T02:57:20.802Z,100356.48
2018-07-27T02:58:27.012Z,100357.48
2018-07-27T02:59:33.303Z,100354.77
2018-07-27T03:00:39.598Z,100358.00
2018-07-27T03:01:46.022Z,100356.78
2018-07-27T03:02:52.375Z,100357.03
2018-07-27T03:03:58.639Z,100358.31
2018-07-27T03:05:04.263Z,100356.50
2018-07-27T03:06:10.552Z,100357.58
2018-07-27T03:07:17.853Z,100357.74
2018-07-27T03:08:24.807Z,100363.92
2018-07-27T03:09:31.130Z,100362.09
2018-07-27T03:10:37.421Z,100352.48
2018-07-27T03:11:43.645Z,100356.78
2018-07-27T03:12:49.985Z,100354.46
2018-07-27T03:13:56.252Z,100360.30
2018-07-27T03:15:02.505Z,100360.38
2018-07-27T03:16:08.821Z,100356.00
2018-07-27T03:17:15.129Z,100356.81
2018-07-27T03:18:21.545Z,100354.95
2018-07-27T03:19:27.876Z,100357.72
2018-07-27T03:20:33.832Z,100359.45
2018-07-27T03:21:40.039Z,100362.39
2018-07-27T03:22:46.396Z,100364.42
2018-07-27T03:23:52.824Z,100355.11
2018-07-27T03:24:59.116Z,100359.62
2018-07-27T03:26:05.043Z,100365.42
2018-07-27T03:27:11.073Z,100356.22
2018-07-27T03:28:17.433Z,100362.19
2018-07-27T03:29:23.747Z,100359.73
2018-07-27T03:30:30.025Z,100357.63
2018-07-27T03:31:36.372Z,100358.73
2018-07-27T03:32:42.312Z,100355.42
2018-07-27T03:33:48.572Z,100363.09
2018-07-27T03:34:54.856Z,100360.77
2018-07-27T03:36:01.108Z,100359.94
2018-07-27T03:37:07.421Z,100367.70
2018-07-27T03:38:12.977Z,100365.33
2018-07-27T03:39:19.612Z,100357.70
2018-07-27T03:40:26.229Z,100362.13
2018-07-27T03:41:32.662Z,100360.68
2018-07-27T03:42:38.650Z,100362.61
2018-07-27T03:43:45.677Z,100358.88
2018-07-27T03:44:52.120Z,100361.35
2018-07-27T03:45:58.505Z,100362.54
2018-07-27T03:47:04.512Z,100359.09
2018-07-27T03:48:10.953Z,100360.95
2018-07-27T03:49:17.257Z,100367.88
2018-07-27T03:50:23.582Z,100369.45
2018-07-27T03:51:29.848Z,100363.34
2018-07-27T03:52:35.857Z,100358.61
2018-07-27T03:53:42.317Z,100364.13
2018-07-27T03:54:49.024Z,100361.33
2018-07-27T03:55:56.169Z,100354.81
2018-07-27T03:57:02.591Z,100359.58
2018-07-27T03:58:09.183Z,100356.80
2018-07-27T03:59:16.727Z,100357.25
2018-07-27T04:00:24.062Z,100367.26
2018-07-27T04:01:30.632Z,100360.23
2018-07-27T04:02:36.868Z,100363.32
2018-07-27T04:03:43.739Z,100368.87
2018-07-27T04:04:50.108Z,100367.94
2018-07-27T04:05:56.502Z,100362.62
2018-07-27T04:07:02.788Z,100365.39
2018-07-27T04:08:09.112Z,100366.19
2018-07-27T04:09:15.366Z,100365.09
2018-07-27T04:10:21.670Z,100365.52
2018-07-27T04:11:28.541Z,100365.94
2018-07-27T04:12:34.824Z,100365.05
2018-07-27T04:13:41.141Z,100367.66
2018-07-27T04:14:48.401Z,100372.58
2018-07-27T04:15:54.278Z,100370.58
2018-07-27T04:17:00.601Z,100367.66
2018-07-27T04:18:06.575Z,100368.73
2018-07-27T04:19:13.014Z,100364.47
2018-07-27T04:20:20.165Z,100368.38
2018-07-27T04:21:26.439Z,100368.55
2018-07-27T04:22:32.878Z,100370.13
2018-07-27T04:23:39.408Z,100363.64
2018-07-27T04:24:45.702Z,100366.67
2018-07-27T04:25:51.992Z,100362.99
2018-07-27T04:26:57.956Z,100368.40
2018-07-27T04:28:04.235Z,100364.29
2018-07-27T04:29:10.575Z,100360.52
2018-07-27T04:30:16.842Z,100363.83
2018-07-27T04:31:23.132Z,100365.22
2018-07-27T04:32:29.464Z,100365.13
2018-07-27T04:33:36.519Z,100363.04
2018-07-27T04:34:42.781Z,100365.87
2018-07-27T04:35:49.189Z,100361.81
2018-07-27T04:36:55.667Z,100362.84
2018-07-27T04:38:01.979Z,100370.83
2018-07-27T04:39:07.574Z,100361.13
2018-07-27T04:40:13.861Z,100369.30
2018-07-27T04:41:19.894Z,100368.71
2018-07-27T04:42:26.259Z,100355.06
2018-07-27T04:43:32.645Z,100367.47
2018-07-27T04:44:39.000Z,100362.73
2018-07-27T04:45:45.340Z,100366.53
2018-07-27T04:46:51.648Z,100366.03
2018-07-27T04:47:58.072Z,100369.50
2018-07-27T04:49:03.992Z,100370.19
2018-07-27T04:50:10.960Z,100372.80
2018-07-27T04:51:18.467Z,100363.19
2018-07-27T04:52:25.231Z,100379.74
2018-07-27T04:53:31.674Z,100367.23
2018-07-27T04:54:37.960Z,100373.15
2018-07-27T04:55:44.352Z,100370.06
2018-07-27T04:56:50.652Z,100370.03
2018-07-27T04:57:57.261Z,100367.06
2018-07-27T04:59:03.631Z,100365.67
2018-07-27T05:00:09.921Z,100365.19
2018-07-27T05:01:15.930Z,100367.55
2018-07-27T05:02:22.372Z,100363.70
2018-07-27T05:03:28.400Z,100371.65
2018-07-27T05:04:34.819Z,100364.88
2018-07-27T05:05:41.262Z,100377.14
2018-07-27T05:06:48.376Z,100376.22
2018-07-27T05:07:55.445Z,100375.52
2018-07-27T05:09:02.278Z,100380.10
2018-07-27T05:10:08.898Z,100370.62
2018-07-27T05:11:15.528Z,100377.13
2018-07-27T05:12:21.485Z,100375.20
2018-07-27T05:13:27.480Z,100374.38
2018-07-27T05:14:33.911Z,100373.89
2018-07-27T05:15:40.374Z,100372.30
2018-07-27T05:16:46.682Z,100369.50
2018-07-27T05:17:52.973Z,100373.83
2018-07-27T05:18:59.300Z,100369.77
2018-07-27T05:20:05.209Z,100379.98
2018-07-27T05:21:10.944Z,100368.47
2018-07-27T05:22:17.284Z,100369.25
2018-07-27T05:23:23.661Z,100377.68
2018-07-27T05:24:30.036Z,100373.91
2018-07-27T05:25:36.569Z,100373.06
2018-07-27T05:26:42.936Z,100375.19
2018-07-27T05:27:49.258Z,100376.78
2018-07-27T05:28:55.598Z,100381.42
2018-07-27T05:30:01.970Z,100381.50
2018-07-27T05:31:07.949Z,100379.82
2018-07-27T05:32:14.230Z,100384.66
2018-07-27T05:33:20.507Z,100389.53
2018-07-27T05:34:26.898Z,100389.09
2018-07-27T05:35:33.373Z,100384.52
2018-07-27T05:36:39.775Z,100385.20
2018-07-27T05:37:46.140Z,100383.93
2018-07-27T05:38:52.496Z,100388.30
2018-07-27T05:39:58.846Z,100385.94
2018-07-27T05:41:04.760Z,100384.46
2018-07-27T05:42:11.007Z,100385.38
2018-07-27T05:43:17.317Z,100384.88
2018-07-27T05:44:23.417Z,100384.86
2018-07-27T05:45:29.870Z,100387.25
2018-07-27T05:46:36.477Z,100381.81
2018-07-27T05:47:42.809Z,100389.56
2018-07-27T05:48:49.098Z,100386.52
2018-07-27T05:49:55.373Z,100383.78
2018-07-27T05:51:01.689Z,100386.78
2018-07-27T05:52:08.572Z,100390.96
2018-07-27T05:53:15.464Z,100390.44
2018-07-27T05:54:21.994Z,100390.11
2018-07-27T05:55:28.260Z,100397.30
2018-07-27T05:56:34.245Z,100389.49
2018-07-27T05:57:40.504Z,100384.91
2018-07-27T05:58:47.611Z,100386.13
2018-07-27T05:59:54.528Z,100388.73
2018-07-27T06:01:00.605Z,100388.78
2018-07-27T06:02:06.280Z,100393.00
2018-07-27T06:03:12.904Z,100386.19
2018-07-27T06:04:18.965Z,100388.05
2018-07-27T06:05:25.100Z,100392.78
2018-07-27T06:06:30.437Z,100388.63
2018-07-27T06:07:36.628Z,100384.98
2018-07-27T06:08:42.941Z,100391.18
2018-07-27T06:09:49.543Z,100388.25
2018-07-27T06:10:55.848Z,100388.77
2018-07-27T06:12:01.828Z,100386.05
2018-07-27T06:13:07.442Z,100388.12
2018-07-27T06:14:13.765Z,100389.16
2018-07-27T06:15:19.728Z,100386.13
2018-07-27T06:16:26.333Z,100383.08
2018-07-27T06:17:35.132Z,100384.47
2018-07-27T06:18:42.505Z,100386.95
2018-07-27T06:19:48.756Z,100388.85
2018-07-27T06:20:55.032Z,100394.80
2018-07-27T06:22:00.896Z,100393.58
2018-07-27T06:23:06.556Z,100393.02
2018-07-27T06:24:12.574Z,100382.06
2018-07-27T06:25:18.828Z,100385.49
2018-07-27T06:26:24.905Z,100385.86
2018-07-27T06:27:30.944Z,100388.36
2018-07-27T06:28:37.017Z,100385.75
2018-07-27T06:29:43.064Z,100385.50
2018-07-27T06:30:49.120Z,100381.47
2018-07-27T06:31:55.591Z,100384.70
2018-07-27T06:33:01.994Z,100387.81
2018-07-27T06:34:08.446Z,100389.44
2018-07-27T06:35:15.208Z,100387.25
2018-07-27T06:36:21.132Z,100387.34
2018-07-27T06:37:27.076Z,100386.95
2018-07-27T06:38:34.168Z,100387.07
2018-07-27T06:39:40.581Z,100388.95
2018-07-27T06:40:46.909Z,100383.80
2018-07-27T06:41:53.170Z,100393.96
2018-07-27T06:42:59.523Z,100386.66
2018-07-27T06:44:05.851Z,100388.05
2018-07-27T06:45:12.235Z,100385.31
2018-07-27T06:46:18.891Z,100382.63
2018-07-27T06:47:25.193Z,100384.34
2018-07-27T06:48:31.480Z,100381.03
2018-07-27T06:49:37.789Z,100384.28
2018-07-27T06:50:44.781Z,100380.16
2018-07-27T06:51:51.245Z,100380.03
2018-07-27T06:52:57.891Z,100386.92
2018-07-27T06:54:04.275Z,100378.70
2018-07-27T06:55:10.565Z,100378.88
2018-07-27T06:56:16.888Z,100373.78
2018-07-27T06:57:23.192Z,100381.62
2018-07-27T06:58:29.492Z,100376.17
2018-07-27T06:59:35.861Z,100379.52
2018-07-27T07:00:42.137Z,100375.30
2018-07-27T07:01:48.448Z,100381.14
2018-07-27T07:02:54.739Z,100382.23
2018-07-27T07:04:01.094Z,100383.91
2018-07-27T07:05:07.015Z,100385.16
2018-07-27T07:06:13.253Z,100379.23
2018-07-27T07:07:19.702Z,100381.17
2018-07-27T07:08:26.705Z,100383.41
2018-07-27T07:09:33.228Z,100382.63
2018-07-27T07:10:39.351Z,100379.44
2018-07-27T07:11:45.277Z,100380.23
2018-07-27T07:12:51.557Z,100382.80
2018-07-27T07:13:57.903Z,100385.05
2018-07-27T07:15:03.848Z,100377.68
2018-07-27T07:16:10.184Z,100370.06
2018-07-27T07:17:16.207Z,100373.80
2018-07-27T07:18:22.532Z,100370.16
2018-07-27T07:19:28.871Z,100379.23
2018-07-27T07:20:34.793Z,100370.34
2018-07-27T07:21:41.193Z,100373.91
2018-07-27T07:22:47.458Z,100373.77
2018-07-27T07:23:53.752Z,100372.25
2018-07-27T07:24:59.915Z,100375.91
2018-07-27T07:26:05.797Z,100376.92
2018-07-27T07:27:12.037Z,100371.56
2018-07-27T07:28:17.993Z,100374.88
2018-07-27T07:29:24.333Z,100373.12
2018-07-27T07:30:30.229Z,100372.95
2018-07-27T07:31:36.544Z,100369.65
2018-07-27T07:32:42.815Z,100369.67
2018-07-27T07:33:49.147Z,100366.50
2018-07-27T07:34:55.178Z,100371.36
2018-07-27T07:36:01.491Z,100374.70
2018-07-27T07:37:07.589Z,100375.28
2018-07-27T07:38:13.864Z,100370.66
2018-07-27T07:39:20.292Z,100377.48
2018-07-27T07:40:26.596Z,100377.30
2018-07-27T07:41:32.913Z,100377.38
2018-07-27T07:42:39.265Z,100378.17
2018-07-27T07:43:45.996Z,100372.73
2018-07-27T07:44:51.997Z,100376.27
2018-07-27T07:45:57.972Z,100379.02
2018-07-27T07:47:03.973Z,100373.14
2018-07-27T07:48:10.116Z,100376.78
2018-07-27T07:49:16.171Z,100370.59
2018-07-27T07:50:22.243Z,100375.33
2018-07-27T07:51:28.361Z,100377.42
2018-07-27T07:52:34.296Z,100374.06
2018-07-27T07:53:40.316Z,100379.50
2018-07-27T07:54:46.631Z,100378.20
2018-07-27T07:55:53.027Z,100374.28
2018-07-27T07:56:59.035Z,100380.95
2018-07-27T07:58:04.720Z,100376.22
2018-07-27T07:59:10.865Z,100374.11
2018-07-27T08:00:17.404Z,100371.73
2018-07-27T08:01:23.172Z,100373.73
2018-07-27T08:02:29.173Z,100374.38
2018-07-27T08:03:35.172Z,100371.61
2018-07-27T08:04:41.204Z,100373.95
2018-07-27T08:05:47.209Z,100377.58
2018-07-27T08:06:53.923Z,100377.14
2018-07-27T08:08:00.044Z,100377.40
2018-07-27T08:09:05.339Z,100376.05
2018-07-27T08:10:11.449Z,100377.84
2018-07-27T08:11:17.571Z,100374.86
2018-07-27T08:12:23.719Z,100373.16
2018-07-27T08:13:30.037Z,100379.53
2018-07-27T08:14:36.640Z,100377.48
2018-07-27T08:15:42.760Z,100374.36
2018-07-27T08:16:48.777Z,100377.50
2018-07-27T08:17:54.853Z,100374.95
2018-07-27T08:19:01.530Z,100378.87
2018-07-27T08:20:08.379Z,100372.59
2018-07-27T08:21:14.499Z,100370.55
2018-07-27T08:22:20.337Z,100371.56
2018-07-27T08:23:26.141Z,100371.25
2018-07-27T08:24:31.824Z,100366.15
2018-07-27T08:25:37.175Z,100363.55
2018-07-27T08:26:42.979Z,100361.77
2018-07-27T08:27:48.341Z,100358.78
2018-07-27T08:28:54.038Z,100360.76
2018-07-27T08:30:00.681Z,100351.00
2018-07-27T08:31:06.645Z,100359.27
2018-07-27T08:32:12.056Z,100352.66
2018-07-27T08:33:17.820Z,100351.80
2018-07-27T08:34:23.668Z,100351.85
2018-07-27T08:35:29.760Z,100352.91
2018-07-27T08:36:35.393Z,100344.27
2018-07-27T08:37:41.303Z,100348.83
2018-07-27T08:38:47.332Z,100345.46
2018-07-27T08:39:53.366Z,100337.70
2018-07-27T08:40:59.461Z,100344.03
2018-07-27T08:42:04.759Z,100341.67
2018-07-27T08:43:10.729Z,100338.95
2018-07-27T08:44:17.049Z,100338.77
2018-07-27T08:45:23.076Z,100345.14
2018-07-27T08:46:28.755Z,100339.94
2018-07-27T08:47:34.900Z,100334.02
2018-07-27T08:48:40.910Z,100338.00
2018-07-27T08:49:46.886Z,100339.70
2018-07-27T08:50:53.066Z,100333.00
2018-07-27T08:51:58.833Z,100338.26
2018-07-27T08:53:04.889Z,100339.94
2018-07-27T08:54:10.366Z,100333.70
2018-07-27T08:55:16.521Z,100339.25
2018-07-27T08:56:22.376Z,100336.48
2018-07-27T08:57:28.160Z,100328.20
2018-07-27T08:58:34.215Z,100329.52
2018-07-27T08:59:40.436Z,100336.06
2018-07-27T09:00:53.108Z,100324.44
2018-07-27T09:01:58.081Z,100322.65
2018-07-27T09:03:03.874Z,100323.56
2018-07-27T09:04:09.628Z,100324.41
2018-07-27T09:05:15.581Z,100327.02
2018-07-27T09:06:21.568Z,100325.05
2018-07-27T09:07:27.588Z,100327.05
2018-07-27T09:08:33.624Z,100329.25
2018-07-27T09:09:39.591Z,100318.98
2018-07-27T09:10:45.637Z,100322.49
2018-07-27T09:11:51.716Z,100321.91
2018-07-27T09:12:58.067Z,100318.92
2018-07-27T09:14:04.405Z,100316.23
2018-07-27T09:15:10.452Z,100318.99
2018-07-27T09:16:16.293Z,100316.38
2018-07-27T09:17:22.515Z,100315.56
2018-07-27T09:18:28.841Z,100322.86
2018-07-27T09:19:34.864Z,100317.34
2018-07-27T09:20:40.877Z,100315.00
2018-07-27T09:21:46.854Z,100314.55
2018-07-27T09:22:52.861Z,100315.48
2018-07-27T09:23:58.863Z,100314.53
2018-07-27T09:25:05.097Z,100319.22
2018-07-27T09:26:11.236Z,100318.37
2018-07-27T09:27:17.526Z,100312.88
2018-07-27T09:28:23.612Z,100309.65
2018-07-27T09:29:29.604Z,100313.75
2018-07-27T09:30:35.644Z,100312.66
2018-07-27T09:31:42.571Z,100311.20
2018-07-27T09:32:48.559Z,100307.02
2018-07-27T09:33:53.860Z,100312.13
2018-07-27T09:34:59.849Z,100306.53
2018-07-27T09:36:05.180Z,100314.28
2018-07-27T09:37:12.044Z,100304.80
2018-07-27T09:38:20.066Z,100308.00
2018-07-27T09:39:29.165Z,100304.03
2018-07-27T09:40:37.693Z,100306.22
2018-07-27T09:41:44.612Z,100296.55
2018-07-27T09:42:50.823Z,100300.84
2018-07-27T09:43:56.884Z,100303.64
2018-07-27T09:45:02.920Z,100301.52
2018-07-27T09:46:08.933Z,100298.91
2018-07-27T09:47:14.931Z,100295.81
2018-07-27T09:48:21.441Z,100300.39
2018-07-27T09:49:27.971Z,100302.19
2018-07-27T09:50:34.413Z,100304.52
2018-07-27T09:51:40.761Z,100299.43
2018-07-27T09:52:47.213Z,100300.67
2018-07-27T09:53:53.377Z,100296.25
2018-07-27T09:54:59.731Z,100296.12
2018-07-27T09:56:06.844Z,100293.40
2018-07-27T09:57:13.005Z,100283.26
2018-07-27T09:58:19.197Z,100293.10
2018-07-27T09:59:25.250Z,100292.88
2018-07-27T10:00:31.044Z,100295.14
2018-07-27T10:01:37.052Z,100289.06
2018-07-27T10:02:43.171Z,100285.98
2018-07-27T10:03:49.165Z,100292.06
2018-07-27T10:04:55.733Z,100286.13
2018-07-27T10:06:01.526Z,100282.05
2018-07-27T10:07:07.507Z,100279.53
2018-07-27T10:08:14.995Z,100283.02
2018-07-27T10:09:21.016Z,100283.10
2018-07-27T10:10:27.251Z,100287.59
2018-07-27T10:11:33.386Z,100286.55
2018-07-27T10:12:39.352Z,100275.01
2018-07-27T10:13:45.473Z,100276.30
2018-07-27T10:14:51.445Z,100283.58
2018-07-27T10:15:57.503Z,100279.54
2018-07-27T10:17:04.096Z,100280.86
2018-07-27T10:18:10.137Z,100275.05
2018-07-27T10:19:16.843Z,100273.48
2018-07-27T10:20:22.959Z,100269.45
2018-07-27T10:21:28.975Z,100270.50
2018-07-27T10:22:34.710Z,100272.14
2018-07-27T10:23:41.057Z,100273.42
2018-07-27T10:24:47.793Z,100270.11
2018-07-27T10:25:53.815Z,100262.68
2018-07-27T10:26:59.906Z,100263.52
2018-07-27T10:28:07.482Z,100257.48
2018-07-27T10:29:13.422Z,100257.23
2018-07-27T10:30:19.438Z,100252.97
2018-07-27T10:31:25.468Z,100257.89
2018-07-27T10:32:31.442Z,100253.27
2018-07-27T10:33:37.481Z,100258.09
2018-07-27T10:34:43.563Z,100260.19
2018-07-27T10:35:49.364Z,100257.02
2018-07-27T10:36:55.368Z,100263.58
2018-07-27T10:38:01.412Z,100261.18
2018-07-27T10:39:07.036Z,100261.72
2018-07-27T10:40:13.164Z,100267.98
2018-07-27T10:41:19.208Z,100261.81
2018-07-27T10:42:25.174Z,100265.14
2018-07-27T10:43:31.175Z,100261.55
2018-07-27T10:44:37.608Z,100248.05
2018-07-27T10:45:43.278Z,100252.22
2018-07-27T10:46:49.337Z,100247.81
2018-07-27T10:47:55.363Z,100244.39
2018-07-27T10:49:00.983Z,100242.41
2018-07-27T10:50:06.113Z,100249.02
2018-07-27T10:51:12.105Z,100242.23
2018-07-27T10:52:17.869Z,100235.98
2018-07-27T10:53:23.983Z,100234.41
2018-07-27T10:54:30.033Z,100236.06
2018-07-27T10:55:36.006Z,100243.80
2018-07-27T10:56:42.024Z,100235.45
2018-07-27T10:57:49.481Z,100238.58
2018-07-27T10:58:57.577Z,100239.17
2018-07-27T11:00:07.429Z,100237.62
2018-07-27T11:01:16.568Z,100232.83
2018-07-27T11:02:24.263Z,100238.08
2018-07-27T11:03:32.868Z,100235.53
2018-07-27T11:04:39.435Z,100222.97
2018-07-27T11:05:46.789Z,100224.88
2018-07-27T11:06:53.296Z,100222.09
2018-07-27T11:08:00.390Z,100219.19
2018-07-27T11:09:06.628Z,100221.11
2018-07-27T11:10:12.839Z,100223.87
2018-07-27T11:11:19.642Z,100217.56
2018-07-27T11:12:25.623Z,100213.20
2018-07-27T11:13:32.118Z,100214.75
2018-07-27T11:14:39.161Z,100214.28
2018-07-27T11:15:46.223Z,100214.27
2018-07-27T11:16:54.189Z,100218.22
2018-07-27T11:18:00.679Z,100214.34
2018-07-27T11:19:08.118Z,100212.05
2018-07-27T11:20:15.140Z,100209.85
2018-07-27T11:21:22.014Z,100208.39
2018-07-27T11:22:29.647Z,100213.30
2018-07-27T11:23:36.562Z,100200.25
2018-07-27T11:24:44.603Z,100208.30
2018-07-27T11:25:52.647Z,100214.66
2018-07-27T11:26:58.444Z,100205.39
2018-07-27T11:28:04.984Z,100207.36
2018-07-27T11:29:13.444Z,100205.59
2018-07-27T11:30:21.700Z,100209.96
2018-07-27T11:31:29.727Z,100207.45
2018-07-27T11:32:36.636Z,100210.03
2018-07-27T11:33:44.380Z,100205.76
2018-07-27T11:34:51.997Z,100201.20
2018-07-27T11:35:57.984Z,100206.96
2018-07-27T11:37:04.046Z,100207.28
2018-07-27T11:38:10.253Z,100198.47
2018-07-27T11:39:16.286Z,100197.65
2018-07-27T11:40:22.255Z,100200.88
2018-07-27T11:41:27.606Z,100198.48
2018-07-27T11:42:33.550Z,100200.22
2018-07-27T11:43:39.424Z,100195.79
2018-07-27T11:44:45.456Z,100196.05
2018-07-27T11:45:51.153Z,100193.73
2018-07-27T11:46:58.077Z,100191.57
2018-07-27T11:48:04.124Z,100189.44
2018-07-27T11:49:10.157Z,100192.48
2018-07-27T11:50:16.141Z,100189.16
2018-07-27T11:51:22.134Z,100190.01
2018-07-27T11:52:28.096Z,100186.88
2018-07-27T11:53:33.820Z,100185.30
2018-07-27T11:54:39.907Z,100190.94
2018-07-27T11:55:46.001Z,100179.37
2018-07-27T11:56:52.090Z,100188.88
2018-07-27T11:57:58.031Z,100182.65
2018-07-27T11:59:03.724Z,100190.48
2018-07-27T12:00:09.836Z,100177.83
2018-07-27T12:01:15.843Z,100175.93
2018-07-27T12:02:22.191Z,100179.39
2018-07-27T12:03:28.516Z,100180.70
2018-07-27T12:04:34.492Z,100174.38
2018-07-27T12:05:40.517Z,100180.23
2018-07-27T12:06:46.648Z,100172.31
2018-07-27T12:07:52.583Z,100177.13
2018-07-27T12:08:58.733Z,100176.70
2018-07-27T12:10:04.001Z,100171.36
2018-07-27T12:11:09.877Z,100173.56
2018-07-27T12:12:16.084Z,100166.03
2018-07-27T12:13:23.089Z,100164.16
2018-07-27T12:14:29.272Z,100165.48
2018-07-27T12:15:35.376Z,100174.55
2018-07-27T12:16:41.074Z,100165.55
2018-07-27T12:17:47.100Z,100166.41
2018-07-27T12:18:53.079Z,100168.12
2018-07-27T12:19:59.171Z,100165.75
2018-07-27T12:21:05.256Z,100165.64
2018-07-27T12:22:11.201Z,100168.34
2018-07-27T12:23:17.700Z,100177.50
2018-07-27T12:24:24.187Z,100172.20
2018-07-27T12:25:30.211Z,100174.28
2018-07-27T12:26:36.311Z,100174.75
2018-07-27T12:27:42.354Z,100176.88
2018-07-27T12:28:48.326Z,100176.06
2018-07-27T12:29:54.410Z,100171.00
2018-07-27T12:31:00.443Z,100175.80
2018-07-27T12:32:06.170Z,100168.88
2018-07-27T12:33:11.824Z,100169.55
2018-07-27T12:34:17.847Z,100162.52
2018-07-27T12:35:23.897Z,100163.20
2018-07-27T12:36:29.851Z,100162.37